Cape Hatteras Naval Facility, North Carolina
Current Conditions -  °F | °C
As of 12:51 AM on Friday 31 Oct 2014 (Local Time) from KHSE Reporting Station
Overcast Overcast  
Wind Chill: 16°   Ceiling: 4200
Heat Index: 16°   Visibility: 10mi
Dew Point: 10°   Wind: 13mph
Humidity: 67%   Direction: 40°NE
Pressure: 29.93"   Gusts: 20mph
Location:  35.2677°N, 75.5426°W
Report Text: KHSE 310451Z AUTO 04011G17KT 10SM OVC042 16/10 A2993 RMK AO2 SLP135 T01610100 402170156 TSNO
Loading
Personal Weather Stations






























Interactive Weather Map
Tropical Storm Tracking
New forecast layout! Learn more

10-Day Weather Forecast

Advertisements
Track Severe Weather on mobile